ADDS METAR Data INFO
IDs: Format: Raw Decoded Include TAF

Data at: 2050 UTC 24 Jun 2018

KGYB 242035Z AUTO 19010G16KT 140V200 10SM SCT047 34/22 A2989 RMK AO2 T03360217
KGYB 242015Z AUTO 16008G18KT 10SM SCT045 SCT050 33/21 A2989 RMK AO2 T03290214
KGYB 241955Z AUTO 18011G16KT 10SM SCT045 34/22 A2989 RMK AO2 T03350217
KGYB 241935Z AUTO 19012G19KT 160V240 10SM SCT045 33/22 A2989 RMK AO2 T03330216
KGYB 241915Z AUTO 17009G20KT 10SM SCT043 SCT050 32/22 A2990 RMK AO2 T03240216
KGYB 241855Z AUTO 19010G17KT 10SM SCT043 SCT050 32/22 A2990 RMK AO2 T03240218
KGYB 241835Z AUTO 18011G16KT 10SM SCT041 32/22 A2991 RMK AO2 T03240216
KGYB 241815Z AUTO 15010G17KT 10SM SCT040 33/22 A2991 RMK AO2 T03250218
KGYB 241755Z AUTO 17008G18KT 10SM SCT040 SCT046 32/22 A2991 RMK AO2 T03210216 10322 20233
KGYB 241735Z AUTO 19012G19KT 10SM SCT038 SCT046 32/22 A2991 RMK AO2 T03180217
KGYB 241715Z AUTO 17005G16KT 130V210 10SM SCT036 32/22 A2991 RMK AO2 T03150222
KGYB 241655Z AUTO 20010G18KT 10SM CLR 31/22 A2990 RMK AO2 T03080218
KGYB 241635Z AUTO 20014G18KT 10SM SCT029 SCT035 30/22 A2991 RMK AO2 T03020216
KGYB 241615Z AUTO 21008KT 10SM SCT031 SCT038 30/23 A2990 RMK AO2 T03000226
KGYB 241555Z AUTO 20009G16KT 10SM SCT029 30/22 A2989 RMK AO2 T03000222
KGYB 241535Z AUTO 20012G21KT 10SM SCT027 30/22 A2989 RMK AO2 T02950220
KGYB 241515Z AUTO 20013G22KT 10SM CLR 29/22 A2989 RMK AO2 T02880221
KGYB 241455Z AUTO 19015G23KT 10SM SCT021 SCT029 29/22 A2989 RMK AO2 T02850222
KGYB 241435Z AUTO 19014G19KT 140V200 10SM SCT019 BKN025 27/23 A2988 RMK AO2 T02740225
KGYB 241415Z AUTO 18012G18KT 10SM SCT018 BKN023 27/23 A2988 RMK AO2 T02700228
KGYB 241355Z AUTO 20012G18KT 10SM BKN013 BKN021 26/23 A2987 RMK AO2 T02620228
KGYB 241335Z AUTO 19011G14KT 10SM BKN013 26/23 A2987 RMK AO2 T02590228
KGYB 241315Z AUTO 18009G19KT 10SM SCT011 25/23 A2986 RMK AO2 T02510226
KGYB 241255Z AUTO 19012G16KT 150V210 7SM CLR 24/22 A2986 RMK AO2 T02410223
KGYB 241235Z AUTO 19010G14KT 7SM CLR 24/22 A2986 RMK AO2 T02370221
KGYB 241215Z AUTO 19008G14KT 7SM CLR 24/22 A2986 RMK AO2 T02350220
KGYB 241155Z AUTO 19008KT 7SM CLR 23/22 A2987 RMK AO2 T02330220 10260 20232
KGYB 241135Z AUTO 19008KT 7SM CLR 23/22 A2987 RMK AO2 T02320221
KGYB 241115Z AUTO 19006KT 7SM CLR 24/22 A2988 RMK AO2 T02350223
KGYB 241055Z AUTO 19006KT 7SM SCT014 24/23 A2987 RMK AO2 T02350225
KGYB 241035Z AUTO 20005KT 7SM SCT016 24/23 A2988 RMK AO2 T02370225
KGYB 241015Z AUTO 19005KT 7SM CLR 24/23 A2987 RMK AO2 T02380226
KGYB 240955Z AUTO 17005KT 7SM CLR 24/23 A2987 RMK AO2 T02400228
KGYB 240935Z AUTO 17004KT 7SM CLR 24/23 A2988 RMK AO2 T02440230
KGYB 240915Z AUTO 16005KT 7SM CLR 25/23 A2989 RMK AO2 T02490231
KGYB 240855Z AUTO 17005KT 10SM SCT016 SCT024 SCT038 25/23 A2989 RMK AO2 T02520232
KGYB 240835Z AUTO 19006KT 10SM BKN015 BKN025 OVC035 26/23 A2991 RMK AO2 T02550233
KGYB 240815Z AUTO 20005KT 10SM OVC013 26/23 A2992 RMK AO2 T02560233
KGYB 240755Z AUTO 19005KT 10SM OVC013 26/24 A2992 RMK AO2 T02580235
KGYB 240735Z AUTO 19005KT 10SM BKN015 OVC026 26/23 A2991 RMK AO2 T02580233
KGYB 240715Z AUTO 18009KT 10SM BKN017 BKN021 BKN026 26/23 A2990 RMK AO2 T02600232
KGYB 240655Z AUTO 19009G15KT 160V220 10SM SCT017 BKN026 26/23 A2990 RMK AO2 T02600232
KGYB 240635Z AUTO 18012KT 10SM SCT015 BKN022 OVC028 26/23 A2989 RMK AO2 T02600233
KGYB 240615Z AUTO 19006KT 10SM SCT018 BKN023 26/23 A2989 RMK AO2 T02590234
KGYB 240555Z AUTO 18008G14KT 10SM SCT017 BKN025 26/23 A2987 RMK AO2 T02590234 10322 20259 403400220
KGYB 240535Z AUTO 18009KT 10SM BKN017 BKN022 26/23 A2987 RMK AO2 T02610233
KGYB 240515Z AUTO 19009G15KT 10SM BKN015 OVC022 26/23 A2987 RMK AO2 T02620234
KGYB 240455Z AUTO 17009G15KT 150V210 10SM BKN017 OVC021 26/23 A2987 RMK AO2 T02640234
KGYB 240435Z AUTO 18008G14KT 10SM BKN017 27/23 A2986 RMK AO2 T02650233
KGYB 240415Z AUTO 18010G15KT 10SM SCT017 27/23 A2984 RMK AO2 T02650231
KGYB 240355Z AUTO 17009G15KT 10SM CLR 27/23 A2982 RMK AO2 T02660230
KGYB 240335Z AUTO 17009G14KT 10SM CLR 27/23 A2981 RMK AO2 T02700229
KGYB 240315Z AUTO 17011G17KT 10SM CLR 27/23 A2981 RMK AO2 T02720230
KGYB 240255Z AUTO 16008KT 10SM CLR 28/23 A2981 RMK AO2 T02760228
KGYB 240235Z AUTO 17010G17KT 10SM CLR 28/23 A2980 RMK AO2 T02810225
KGYB 240215Z AUTO 16010G15KT 10SM CLR 29/22 A2980 RMK AO2 T02860220
KGYB 240155Z AUTO 16009G15KT 10SM CLR 29/22 A2979 RMK AO2 T02900219
KGYB 240135Z AUTO 17010G17KT 10SM CLR 30/22 A2979 RMK AO2 T02950218
KGYB 240115Z AUTO 17008G16KT 140V210 10SM CLR 30/22 A2978 RMK AO2 T03010220
KGYB 240055Z AUTO 17012G15KT 140V200 10SM CLR 31/22 A2978 RMK AO2 T03080219
KGYB 240035Z AUTO 17010G20KT 10SM CLR 31/22 A2978 RMK AO2 T03130217
KGYB 240015Z AUTO 15012G18KT 10SM CLR 32/21 A2978 RMK AO2 T03180213
KGYB 232355Z AUTO 16009G15KT 10SM CLR 32/21 A2978 RMK AO2 T03220213 10340 20310
KGYB 232335Z AUTO 17008G14KT 10SM SCT047 33/21 A2978 RMK AO2 T03290212
KGYB 232315Z AUTO 15010G15KT 10SM SCT047 33/21 A2978 RMK AO2 T03290213
KGYB 232255Z AUTO 16011G15KT 140V200 10SM CLR 33/21 A2979 RMK AO2 T03270211
KGYB 232235Z AUTO 17009G15KT 140V200 10SM CLR 33/21 A2980 RMK AO2 T03340210
KGYB 232215Z AUTO 15010G18KT 10SM SCT048 34/21 A2980 RMK AO2 T03350213
KGYB 232155Z AUTO 17009G14KT 10SM SCT048 34/22 A2980 RMK AO2 T03370217
KGYB 232135Z AUTO 17008G17KT 10SM SCT049 34/21 A2981 RMK AO2 T03370206
KGYB 232115Z AUTO 15011G15KT 10SM SCT049 34/21 A2981 RMK AO2 T03370207
KGYB 232055Z AUTO 15010G14KT 10SM SCT049 34/21 A2981 RMK AO2 T03360212
KGYB 232035Z AUTO 16009G14KT 130V200 10SM SCT049 34/21 A2982 RMK AO2 T03370212
KGYB 232015Z AUTO 17007G16KT 140V200 10SM CLR 34/21 A2983 RMK AO2 T03350208
KGYB 231955Z AUTO 17007G15KT 120V200 10SM SCT047 33/21 A2984 RMK AO2 T03300209
KGYB 231935Z AUTO 16012G15KT 10SM SCT045 33/21 A2984 RMK AO2 T03290213
KGYB 231915Z AUTO 20007KT 10SM SCT045 33/21 A2985 RMK AO2 T03260205
KGYB 231855Z AUTO 17007KT 10SM SCT043 33/22 A2986 RMK AO2 T03280215
KGYB 231835Z AUTO 19010G15KT 170V240 10SM SCT041 32/21 A2986 RMK AO2 T03230213
KGYB 231815Z AUTO 20010G14KT 10SM SCT036 32/21 A2987 RMK AO2 T03180213
KGYB 231755Z AUTO 18008G17KT 10SM SCT035 31/21 A2988 RMK AO2 T03140212 10314 20220
KGYB 231735Z AUTO 18008G16KT 10SM SCT033 31/21 A2988 RMK AO2 T03100213
KGYB 231715Z AUTO 20010G15KT 10SM CLR 31/22 A2988 RMK AO2 T03070221
KGYB 231655Z AUTO 20011KT 10SM SCT031 30/21 A2989 RMK AO2 T03000214
KGYB 231635Z AUTO 18009KT 160V220 10SM SCT031 29/22 A2989 RMK AO2 T02910220
KGYB 231615Z AUTO 20009G16KT 10SM SCT029 29/22 A2989 RMK AO2 T02920217
KGYB 231555Z AUTO 19010G14KT 10SM SCT027 29/22 A2988 RMK AO2 T02870217
KGYB 231535Z AUTO 20009G17KT 10SM CLR 29/22 A2989 RMK AO2 T02870216
KGYB 231515Z AUTO 20011G16KT 10SM SCT027 28/22 A2989 RMK AO2 T02770215
KGYB 231455Z AUTO 21013G18KT 10SM SCT018 SCT025 27/22 A2989 RMK AO2 T02720217
KGYB 231435Z AUTO 20011G15KT 10SM SCT016 BKN023 26/22 A2989 RMK AO2 T02630216
KGYB 231415Z AUTO 20010G14KT 10SM BKN016 BKN021 26/22 A2989 RMK AO2 T02560219
KGYB 231355Z AUTO 19006KT 10SM BKN015 OVC021 25/22 A2989 RMK AO2 T02510220
KGYB 231335Z AUTO 19008KT 10SM BKN018 24/22 A2988 RMK AO2 T02430218
KGYB 231315Z AUTO 19009G14KT 10SM BKN016 24/22 A2986 RMK AO2 T02380215
KGYB 231255Z AUTO 19006KT 10SM OVC014 23/21 A2986 RMK AO2 T02310214
KGYB 231235Z AUTO 19008KT 10SM OVC014 23/21 A2986 RMK AO2 T02270212
KGYB 231215Z AUTO 19008KT 10SM BKN012 22/21 A2986 RMK AO2 T02230210
KGYB 231155Z AUTO 19007KT 10SM OVC010 22/21 A2985 RMK AO2 T02200210 10255 20220
KGYB 231140Z AUTO 19009KT 10SM SCT007 OVC012 22/21 A2984 RMK AO2 T02200211
KGYB 231115Z AUTO 17004KT 7SM BKN007 OVC010 22/21 A2985 RMK AO2 T02200212
KGYB 231055Z AUTO 18005KT 7SM SCT007 22/21 A2984 RMK AO2 T02210213
KGYB 231035Z AUTO 18004KT 7SM CLR 22/21 A2984 RMK AO2 T02220213
KGYB 231015Z AUTO 16003KT 7SM CLR 23/22 A2984 RMK AO2 T02250215
KGYB 230955Z AUTO 18003KT 7SM SCT009 23/22 A2984 RMK AO2 T02260215
KGYB 230935Z AUTO 19004KT 10SM CLR 23/22 A2984 RMK AO2 T02290218
KGYB 230915Z AUTO 18003KT 10SM SCT009 23/22 A2984 RMK AO2 T02310219
KGYB 230855Z AUTO 18005KT 10SM BKN011 24/22 A2983 RMK AO2 T02350220